createdAt,value
2022-11-07T00:00:26.997Z,8.50
2022-11-07T00:02:53.676Z,8.50
2022-11-07T00:05:20.385Z,8.50
2022-11-07T00:07:47.036Z,8.50
2022-11-07T00:10:13.701Z,8.50
2022-11-07T00:12:40.273Z,8.50
2022-11-07T00:15:07.277Z,8.50
2022-11-07T00:17:33.957Z,8.60
2022-11-07T00:20:00.618Z,8.50
2022-11-07T00:22:27.201Z,8.50
2022-11-07T00:24:53.852Z,8.50
2022-11-07T00:27:20.545Z,8.40
2022-11-07T00:29:47.194Z,8.40
2022-11-07T00:32:13.871Z,8.40
2022-11-07T00:34:40.497Z,8.30
2022-11-07T00:37:07.173Z,8.40
2022-11-07T00:39:33.778Z,8.40
2022-11-07T00:42:00.560Z,8.30
2022-11-07T00:44:27.232Z,8.30
2022-11-07T00:46:53.842Z,8.30
2022-11-07T00:49:20.486Z,8.40
2022-11-07T00:51:47.311Z,8.40
2022-11-07T00:54:13.951Z,8.40
2022-11-07T00:56:40.538Z,8.40
2022-11-07T00:59:07.324Z,8.40
2022-11-07T01:01:35.342Z,8.40
2022-11-07T01:04:20.964Z,8.40
2022-11-07T01:06:47.727Z,8.40
2022-11-07T01:09:20.092Z,8.30
2022-11-07T01:11:47.163Z,8.40
2022-11-07T01:14:16.092Z,8.30
2022-11-07T01:16:42.901Z,8.40
2022-11-07T01:19:09.685Z,8.40
2022-11-07T01:21:40.957Z,8.40
2022-11-07T01:24:10.714Z,8.40
2022-11-07T01:26:38.234Z,8.40
2022-11-07T01:29:05.158Z,8.50
2022-11-07T01:31:31.797Z,8.50
2022-11-07T01:33:59.503Z,8.50
2022-11-07T01:36:26.565Z,8.50
2022-11-07T01:38:53.414Z,8.50
2022-11-07T01:41:22.850Z,8.50
2022-11-07T01:43:58.258Z,8.50
2022-11-07T01:46:30.711Z,8.50
2022-11-07T01:49:22.850Z,8.50
2022-11-07T01:51:50.646Z,8.50
2022-11-07T01:54:20.826Z,8.50
2022-11-07T01:56:48.180Z,8.50
2022-11-07T01:59:20.037Z,8.50
2022-11-07T02:01:46.872Z,8.50
2022-11-07T02:04:14.255Z,8.50
2022-11-07T02:06:47.981Z,8.60
2022-11-07T02:09:15.022Z,8.60
2022-11-07T02:11:41.720Z,8.60
2022-11-07T02:14:13.054Z,8.50
2022-11-07T02:16:39.659Z,8.60
2022-11-07T02:19:13.232Z,8.60
2022-11-07T02:21:49.682Z,8.60
2022-11-07T02:24:22.064Z,8.50
2022-11-07T02:26:48.997Z,8.60
2022-11-07T02:29:15.995Z,8.60
2022-11-07T02:31:42.615Z,8.60
2022-11-07T02:34:09.224Z,8.60
2022-11-07T02:36:35.922Z,8.60
2022-11-07T02:39:02.769Z,8.60
2022-11-07T02:41:33.240Z,8.60
2022-11-07T02:44:04.780Z,8.60
2022-11-07T02:46:32.644Z,8.60
2022-11-07T02:49:00.936Z,8.60
2022-11-07T02:51:27.947Z,8.60
2022-11-07T02:53:54.836Z,8.60
2022-11-07T02:56:21.927Z,8.60
2022-11-07T02:58:49.284Z,8.60
2022-11-07T03:01:16.318Z,8.60
2022-11-07T03:03:45.064Z,8.60
2022-11-07T03:06:14.301Z,8.60
2022-11-07T03:08:41.845Z,8.60
2022-11-07T03:11:09.139Z,8.50
2022-11-07T03:13:36.221Z,8.60
2022-11-07T03:16:07.921Z,8.50
2022-11-07T03:18:35.574Z,8.60
2022-11-07T03:21:02.523Z,8.60
2022-11-07T03:23:29.838Z,8.60
2022-11-07T03:25:56.615Z,8.50
2022-11-07T03:28:24.795Z,8.50
2022-11-07T03:30:51.962Z,8.50
2022-11-07T03:33:18.825Z,8.50
2022-11-07T03:35:45.803Z,8.50
2022-11-07T03:38:13.920Z,8.50
2022-11-07T03:40:40.697Z,8.40
2022-11-07T03:43:07.702Z,8.40
2022-11-07T03:45:34.447Z,8.30
2022-11-07T03:48:01.263Z,8.30
2022-11-07T03:50:30.675Z,8.30
2022-11-07T03:52:57.373Z,8.20
2022-11-07T03:55:24.041Z,8.10
2022-11-07T03:57:50.802Z,8.10
2022-11-07T04:00:18.454Z,8.10
2022-11-07T04:02:45.449Z,8.00
2022-11-07T04:05:13.555Z,8.00
2022-11-07T04:07:40.795Z,8.10
2022-11-07T04:10:07.743Z,8.10
2022-11-07T04:16:05.095Z,8.10
2022-11-07T04:18:31.774Z,8.00
2022-11-07T04:20:58.562Z,8.10
2022-11-07T04:23:25.258Z,8.00
2022-11-07T04:26:10.544Z,8.00
2022-11-07T04:28:37.250Z,8.00
2022-11-07T04:31:03.984Z,8.00
2022-11-07T04:33:30.708Z,7.90
2022-11-07T04:35:57.643Z,7.90
2022-11-07T04:38:24.320Z,7.90
2022-11-07T04:40:55.456Z,8.00
2022-11-07T04:43:23.253Z,8.00
2022-11-07T04:45:50.107Z,8.00
2022-11-07T04:48:17.424Z,8.00
2022-11-07T04:50:44.730Z,8.00
2022-11-07T04:53:17.659Z,7.90
2022-11-07T04:55:44.647Z,7.90
2022-11-07T04:58:11.379Z,7.80
2022-11-07T05:00:38.210Z,7.80
2022-11-07T05:03:05.050Z,7.80
2022-11-07T05:05:31.843Z,7.80
2022-11-07T05:07:58.657Z,7.70
2022-11-07T05:10:28.687Z,7.80
2022-11-07T05:12:56.074Z,7.70
2022-11-07T05:15:23.292Z,7.70
2022-11-07T05:17:50.138Z,7.80
2022-11-07T05:20:37.027Z,7.70
2022-11-07T05:23:15.918Z,7.70
2022-11-07T05:25:43.882Z,7.60
2022-11-07T05:28:12.348Z,7.60
2022-11-07T05:30:43.435Z,7.50
2022-11-07T05:33:11.833Z,7.50
2022-11-07T05:35:39.205Z,7.50
2022-11-07T05:38:06.038Z,7.40
2022-11-07T05:40:34.818Z,7.40
2022-11-07T05:43:03.226Z,7.30
2022-11-07T05:45:31.043Z,7.30
2022-11-07T05:48:01.921Z,7.20
2022-11-07T05:50:29.942Z,7.20
2022-11-07T05:52:57.879Z,7.20
2022-11-07T05:55:25.744Z,7.20
2022-11-07T05:57:53.006Z,7.20
2022-11-07T06:00:20.376Z,7.20
2022-11-07T06:02:55.479Z,7.10
2022-11-07T06:05:24.462Z,7.10
2022-11-07T06:07:51.518Z,7.00
2022-11-07T06:10:18.856Z,7.00
2022-11-07T06:12:45.772Z,7.00
2022-11-07T06:15:12.702Z,7.00
2022-11-07T06:17:39.673Z,6.90
2022-11-07T06:20:06.942Z,7.00
2022-11-07T06:22:37.184Z,7.10
2022-11-07T06:25:05.031Z,7.00
2022-11-07T06:27:31.774Z,7.00
2022-11-07T06:29:58.499Z,7.00
2022-11-07T06:32:25.373Z,7.00
2022-11-07T06:34:54.898Z,7.00
2022-11-07T06:37:21.702Z,7.00
2022-11-07T06:39:48.806Z,7.10
2022-11-07T06:42:21.620Z,7.10
2022-11-07T06:44:58.077Z,7.20
2022-11-07T06:47:29.498Z,7.20
2022-11-07T06:49:56.444Z,7.20
2022-11-07T06:52:23.170Z,7.20
2022-11-07T06:54:52.549Z,7.20
2022-11-07T06:57:19.328Z,7.20
2022-11-07T06:59:51.469Z,7.20
2022-11-07T07:02:37.092Z,7.20
2022-11-07T07:05:06.083Z,7.20
2022-11-07T07:07:32.657Z,7.10
2022-11-07T07:09:59.329Z,7.20
2022-11-07T07:12:26.472Z,7.20
2022-11-07T07:14:53.173Z,7.20
2022-11-07T07:17:20.613Z,7.20
2022-11-07T07:19:47.198Z,7.40
2022-11-07T07:22:14.194Z,7.30
2022-11-07T07:24:40.817Z,7.30
2022-11-07T07:27:07.615Z,7.30
2022-11-07T07:29:34.873Z,7.40
2022-11-07T07:32:01.565Z,7.40
2022-11-07T07:34:28.265Z,7.40
2022-11-07T07:36:55.056Z,7.60
2022-11-07T07:39:23.581Z,7.70
2022-11-07T07:41:54.456Z,7.70
2022-11-07T07:44:21.648Z,7.80
2022-11-07T07:46:48.722Z,7.80
2022-11-07T07:49:15.553Z,7.90
2022-11-07T07:51:42.279Z,7.90
2022-11-07T07:54:11.646Z,8.00
2022-11-07T07:56:38.277Z,8.00
2022-11-07T07:59:04.884Z,8.10
2022-11-07T08:01:31.594Z,8.10
2022-11-07T08:04:01.708Z,8.30
2022-11-07T08:06:30.397Z,8.40
2022-11-07T08:08:58.412Z,8.50
2022-11-07T08:11:25.301Z,8.50
2022-11-07T08:13:54.310Z,8.60
2022-11-07T08:16:22.896Z,8.60
2022-11-07T08:18:49.730Z,8.60
2022-11-07T08:21:16.441Z,8.70
2022-11-07T08:23:43.088Z,8.70
2022-11-07T08:26:09.815Z,8.70
2022-11-07T08:28:36.545Z,8.80
2022-11-07T08:31:10.087Z,8.90
2022-11-07T08:33:36.899Z,8.90
2022-11-07T08:36:05.818Z,8.90
2022-11-07T08:38:33.657Z,8.90
2022-11-07T08:41:00.556Z,8.90
2022-11-07T08:43:27.750Z,9.00
2022-11-07T08:45:55.545Z,9.10
2022-11-07T08:48:23.480Z,9.10
2022-11-07T08:50:55.216Z,9.10
2022-11-07T08:53:23.097Z,9.10
2022-11-07T08:55:49.986Z,9.20
2022-11-07T08:58:16.710Z,9.30
2022-11-07T09:00:43.652Z,9.40
2022-11-07T09:05:58.657Z,9.50
2022-11-07T09:08:25.299Z,9.60
2022-11-07T09:10:52.000Z,9.70
2022-11-07T09:13:20.662Z,9.80
2022-11-07T09:15:51.022Z,9.80
2022-11-07T09:18:19.384Z,9.90
2022-11-07T09:20:46.059Z,9.90
2022-11-07T09:23:15.357Z,10.00
2022-11-07T09:25:42.143Z,10.00
2022-11-07T09:28:09.201Z,10.10
2022-11-07T09:30:35.879Z,10.20
2022-11-07T09:33:02.618Z,10.30
2022-11-07T09:35:29.283Z,10.40
2022-11-07T09:37:56.000Z,10.60
2022-11-07T09:40:40.963Z,10.60
2022-11-07T09:43:24.085Z,10.60
2022-11-07T09:46:09.566Z,10.60
2022-11-07T09:48:46.376Z,10.60
2022-11-07T09:51:38.110Z,10.50
2022-11-07T09:54:13.745Z,10.50
2022-11-07T09:56:43.214Z,10.50
2022-11-07T09:59:24.698Z,10.60
2022-11-07T10:01:51.574Z,10.60
2022-11-07T10:04:26.277Z,10.60
2022-11-07T10:07:05.588Z,10.60
2022-11-07T10:09:46.516Z,10.70
2022-11-07T10:12:44.517Z,10.70
2022-11-07T10:15:23.591Z,10.70
2022-11-07T10:18:35.088Z,10.70
2022-11-07T10:21:37.699Z,10.70
2022-11-07T10:24:33.423Z,10.80
2022-11-07T10:27:02.167Z,10.90
2022-11-07T10:29:44.574Z,10.90
2022-11-07T10:32:29.023Z,10.90
2022-11-07T10:35:24.426Z,10.90
2022-11-07T10:37:55.630Z,11.00
2022-11-07T10:40:26.036Z,11.00
2022-11-07T10:42:55.054Z,11.10
2022-11-07T10:45:23.565Z,11.10
2022-11-07T10:48:02.675Z,11.10
2022-11-07T10:50:30.504Z,11.20
2022-11-07T10:53:03.420Z,11.20
2022-11-07T10:55:45.764Z,11.20
2022-11-07T10:58:24.624Z,11.30
2022-11-07T11:01:09.206Z,11.30
2022-11-07T11:03:45.818Z,11.40
2022-11-07T11:06:18.541Z,11.40
2022-11-07T11:08:47.155Z,11.40
2022-11-07T11:11:14.907Z,11.50
2022-11-07T11:13:42.148Z,11.40
2022-11-07T11:16:26.982Z,11.50
2022-11-07T11:18:57.003Z,11.50
2022-11-07T11:21:25.129Z,11.50
2022-11-07T11:23:53.454Z,11.50
2022-11-07T11:26:33.486Z,11.60
2022-11-07T11:29:05.094Z,11.70
2022-11-07T11:31:37.200Z,11.70
2022-11-07T11:34:09.149Z,11.70
2022-11-07T11:36:45.005Z,11.80
2022-11-07T11:39:35.508Z,11.80
2022-11-07T11:42:04.841Z,11.90
2022-11-07T11:44:38.237Z,11.90
2022-11-07T11:47:34.171Z,12.00
2022-11-07T11:50:22.314Z,12.00
2022-11-07T11:52:49.334Z,12.10
2022-11-07T11:55:19.045Z,12.20
2022-11-07T11:58:23.215Z,12.40
2022-11-07T12:01:09.492Z,12.50
2022-11-07T12:04:05.477Z,12.50
2022-11-07T12:06:42.264Z,12.50
2022-11-07T12:09:36.509Z,12.60
2022-11-07T12:12:46.265Z,12.60
2022-11-07T12:15:48.154Z,12.70
2022-11-07T12:18:37.287Z,12.70
2022-11-07T12:21:36.265Z,12.80
2022-11-07T12:24:45.667Z,12.80
2022-11-07T12:27:54.412Z,12.80
2022-11-07T12:30:35.161Z,12.90
2022-11-07T12:33:19.756Z,13.00
2022-11-07T12:35:56.444Z,13.10
2022-11-07T12:38:41.589Z,13.10
2022-11-07T12:41:32.770Z,13.20
2022-11-07T12:44:18.763Z,13.20
2022-11-07T12:46:56.152Z,13.30
2022-11-07T12:49:50.294Z,13.20
2022-11-07T12:52:39.321Z,13.20
2022-11-07T12:55:16.622Z,13.20
2022-11-07T12:57:43.964Z,13.20
2022-11-07T13:00:30.441Z,13.20
2022-11-07T13:03:23.863Z,13.20
2022-11-07T13:06:05.686Z,13.10
2022-11-07T13:12:24.149Z,13.10
2022-11-07T13:14:51.360Z,13.10
2022-11-07T13:17:20.121Z,13.10
2022-11-07T13:20:03.546Z,13.10
2022-11-07T13:22:38.719Z,13.10
2022-11-07T13:25:22.020Z,13.20
2022-11-07T13:27:57.987Z,13.10
2022-11-07T13:30:30.510Z,13.10
2022-11-07T13:32:58.839Z,13.10
2022-11-07T13:35:31.948Z,13.00
2022-11-07T13:38:08.249Z,13.10
2022-11-07T13:40:44.933Z,13.10
2022-11-07T13:43:22.171Z,13.10
2022-11-07T13:45:59.014Z,13.10
2022-11-07T13:48:49.032Z,13.10
2022-11-07T13:51:32.425Z,13.00
2022-11-07T13:54:14.493Z,13.00
2022-11-07T13:57:07.278Z,13.00
2022-11-07T13:59:45.512Z,13.00
2022-11-07T14:02:23.628Z,13.00
2022-11-07T14:05:14.633Z,13.00
2022-11-07T14:07:43.294Z,13.00
2022-11-07T14:10:43.133Z,13.10
2022-11-07T14:13:13.738Z,13.10
2022-11-07T14:15:47.696Z,13.10
2022-11-07T14:18:32.420Z,13.10
2022-11-07T14:21:00.205Z,13.00
2022-11-07T14:23:32.634Z,13.00
2022-11-07T14:26:19.101Z,13.00
2022-11-07T14:28:45.814Z,12.90
2022-11-07T14:31:26.168Z,12.90
2022-11-07T14:33:56.238Z,12.90
2022-11-07T14:36:23.406Z,12.90
2022-11-07T14:39:00.021Z,12.90
2022-11-07T14:41:27.256Z,12.80
2022-11-07T14:44:03.610Z,12.80
2022-11-07T14:46:31.004Z,12.80
2022-11-07T14:48:57.885Z,12.80
2022-11-07T14:51:27.733Z,12.80
2022-11-07T14:54:12.346Z,12.80
2022-11-07T14:56:43.183Z,12.80
2022-11-07T14:59:15.283Z,12.70
2022-11-07T15:02:12.386Z,12.70
2022-11-07T15:04:47.672Z,12.70
2022-11-07T15:07:22.680Z,12.70
2022-11-07T15:09:50.830Z,12.70
2022-11-07T15:12:25.012Z,12.60
2022-11-07T15:15:22.176Z,12.60
2022-11-07T15:17:55.003Z,12.60
2022-11-07T15:20:30.941Z,12.50
2022-11-07T15:23:39.833Z,12.50
2022-11-07T15:26:06.931Z,12.40
2022-11-07T15:28:47.528Z,12.40
2022-11-07T15:31:21.973Z,12.30
2022-11-07T15:33:48.853Z,12.20
2022-11-07T15:36:16.251Z,12.20
2022-11-07T15:38:43.626Z,12.20
2022-11-07T15:41:12.010Z,12.10
2022-11-07T15:43:39.188Z,12.10
2022-11-07T15:46:28.530Z,12.00
2022-11-07T15:48:55.304Z,11.90
2022-11-07T15:51:23.598Z,11.80
2022-11-07T15:53:50.832Z,11.70
2022-11-07T15:56:21.732Z,11.70
2022-11-07T15:58:48.586Z,11.60
2022-11-07T16:01:15.519Z,11.50
2022-11-07T16:03:42.382Z,11.50
2022-11-07T16:06:26.440Z,11.50
2022-11-07T16:08:53.509Z,11.50
2022-11-07T16:11:20.494Z,11.40
2022-11-07T16:13:47.307Z,11.40
2022-11-07T16:16:24.774Z,11.30
2022-11-07T16:18:53.206Z,11.30
2022-11-07T16:21:20.428Z,11.20
2022-11-07T16:23:49.614Z,11.20
2022-11-07T16:26:26.339Z,11.10
2022-11-07T16:28:53.127Z,11.10
2022-11-07T16:31:20.673Z,10.90
2022-11-07T16:33:47.404Z,11.00
2022-11-07T16:36:25.153Z,10.80
2022-11-07T16:38:52.606Z,10.80
2022-11-07T16:41:21.088Z,10.70
2022-11-07T16:43:48.013Z,10.70
2022-11-07T16:46:20.258Z,10.60
2022-11-07T16:48:50.186Z,10.60
2022-11-07T16:51:18.943Z,10.50
2022-11-07T16:53:46.271Z,10.50
2022-11-07T16:56:17.972Z,10.40
2022-11-07T16:58:44.626Z,10.20
2022-11-07T17:01:11.604Z,10.20
2022-11-07T17:03:38.479Z,10.20
2022-11-07T17:06:05.715Z,10.10
2022-11-07T17:08:41.169Z,10.10
2022-11-07T17:11:08.179Z,10.00
2022-11-07T17:13:34.912Z,10.00
2022-11-07T17:16:01.647Z,9.90
2022-11-07T17:18:28.432Z,9.90
2022-11-07T17:20:55.666Z,9.90
2022-11-07T17:23:29.612Z,9.90
2022-11-07T17:26:00.193Z,9.80
2022-11-07T17:28:27.032Z,9.80
2022-11-07T17:30:53.734Z,9.70
2022-11-07T17:33:20.366Z,9.70
2022-11-07T17:35:48.320Z,9.70
2022-11-07T17:38:18.886Z,9.70
2022-11-07T17:40:46.022Z,9.60
2022-11-07T17:43:12.686Z,9.60
2022-11-07T17:45:40.221Z,9.60
2022-11-07T17:48:06.995Z,9.60
2022-11-07T17:50:33.743Z,9.60
2022-11-07T17:53:00.396Z,9.60
2022-11-07T17:55:27.136Z,9.60
2022-11-07T17:57:54.177Z,9.60
2022-11-07T18:00:23.594Z,9.50
2022-11-07T18:02:52.147Z,9.50
2022-11-07T18:05:21.620Z,9.40
2022-11-07T18:07:48.644Z,9.40
2022-11-07T18:10:16.386Z,9.30
2022-11-07T18:12:43.561Z,9.30
2022-11-07T18:15:12.811Z,9.40
2022-11-07T18:17:40.454Z,9.30
2022-11-07T18:20:08.745Z,9.30
2022-11-07T18:22:37.089Z,9.30
2022-11-07T18:25:05.985Z,9.30
2022-11-07T18:27:33.002Z,9.30
2022-11-07T18:30:00.406Z,9.30
2022-11-07T18:32:32.921Z,9.30
2022-11-07T18:35:08.095Z,9.30
2022-11-07T18:37:35.621Z,9.20
2022-11-07T18:40:04.069Z,9.20
2022-11-07T18:42:31.072Z,9.20
2022-11-07T18:44:57.831Z,9.20
2022-11-07T18:47:24.567Z,9.10
2022-11-07T18:49:56.582Z,9.00
2022-11-07T18:52:24.131Z,8.90
2022-11-07T18:54:51.467Z,8.90
2022-11-07T18:57:18.338Z,8.90
2022-11-07T18:59:45.646Z,8.80
2022-11-07T19:02:12.581Z,8.70
2022-11-07T19:04:39.410Z,8.60
2022-11-07T19:07:06.090Z,8.60
2022-11-07T19:09:33.528Z,8.50
2022-11-07T19:12:01.100Z,8.40
2022-11-07T19:14:28.548Z,8.40
2022-11-07T19:16:55.596Z,8.30
2022-11-07T19:19:22.828Z,8.30
2022-11-07T19:21:49.817Z,8.30
2022-11-07T19:24:16.491Z,8.20
2022-11-07T19:26:43.224Z,8.20
2022-11-07T19:29:09.988Z,8.20
2022-11-07T19:31:37.683Z,8.20
2022-11-07T19:34:05.301Z,8.10
2022-11-07T19:36:32.659Z,8.00
2022-11-07T19:38:59.395Z,8.00
2022-11-07T19:41:26.092Z,8.00
2022-11-07T19:43:52.831Z,7.90
2022-11-07T19:46:22.009Z,7.90
2022-11-07T19:48:50.257Z,7.80
2022-11-07T19:51:21.912Z,7.80
2022-11-07T19:57:25.802Z,7.80
2022-11-07T19:59:52.770Z,7.70
2022-11-07T20:02:32.162Z,7.60
2022-11-07T20:04:59.922Z,7.50
2022-11-07T20:07:26.647Z,7.40
2022-11-07T20:09:54.826Z,7.40
2022-11-07T20:12:21.734Z,7.40
2022-11-07T20:14:48.653Z,7.30
2022-11-07T20:17:15.645Z,7.20
2022-11-07T20:19:42.299Z,7.30
2022-11-07T20:22:12.053Z,7.30
2022-11-07T20:24:38.914Z,7.20
2022-11-07T20:27:05.818Z,7.10
2022-11-07T20:29:32.626Z,7.00
2022-11-07T20:31:59.416Z,7.00
2022-11-07T20:34:26.082Z,7.00
2022-11-07T20:36:54.055Z,7.00
2022-11-07T20:39:21.152Z,6.90
2022-11-07T20:41:47.812Z,6.90
2022-11-07T20:44:15.478Z,7.00
2022-11-07T20:46:44.791Z,6.90
2022-11-07T20:49:17.691Z,6.80
2022-11-07T20:51:45.064Z,6.70
2022-11-07T20:54:13.214Z,6.70
2022-11-07T20:56:39.972Z,6.70
2022-11-07T20:59:06.936Z,6.70
2022-11-07T21:01:37.290Z,6.70
2022-11-07T21:04:10.557Z,6.60
2022-11-07T21:06:37.542Z,6.60
2022-11-07T21:09:04.894Z,6.60
2022-11-07T21:11:32.332Z,6.60
2022-11-07T21:13:59.388Z,6.60
2022-11-07T21:16:27.174Z,6.50
2022-11-07T21:18:54.738Z,6.40
2022-11-07T21:21:27.581Z,6.40
2022-11-07T21:23:56.357Z,6.40
2022-11-07T21:26:35.488Z,6.40
2022-11-07T21:29:06.542Z,6.40
2022-11-07T21:31:34.317Z,6.40
2022-11-07T21:34:00.962Z,6.40
2022-11-07T21:36:31.357Z,6.30
2022-11-07T21:38:59.805Z,6.20
2022-11-07T21:41:27.107Z,6.20
2022-11-07T21:43:53.787Z,6.10
2022-11-07T21:46:29.304Z,6.20
2022-11-07T21:48:57.068Z,6.20
2022-11-07T21:51:26.531Z,6.10
2022-11-07T21:53:53.585Z,6.10
2022-11-07T21:56:29.241Z,6.10
2022-11-07T21:59:01.290Z,6.10
2022-11-07T22:01:29.033Z,6.00
2022-11-07T22:04:12.428Z,6.00
2022-11-07T22:06:43.516Z,5.90
2022-11-07T22:09:13.275Z,5.90
2022-11-07T22:11:39.909Z,5.90
2022-11-07T22:14:06.644Z,5.90
2022-11-07T22:16:33.668Z,5.80
2022-11-07T22:19:00.781Z,5.80
2022-11-07T22:21:27.488Z,5.70
2022-11-07T22:23:55.299Z,5.70
2022-11-07T22:26:24.516Z,5.70
2022-11-07T22:28:51.502Z,5.70
2022-11-07T22:31:23.797Z,5.60
2022-11-07T22:33:52.039Z,5.70
2022-11-07T22:36:19.155Z,5.70
2022-11-07T22:38:45.945Z,5.60
2022-11-07T22:41:21.945Z,5.60
2022-11-07T22:43:49.681Z,5.50
2022-11-07T22:46:25.247Z,5.50
2022-11-07T22:48:53.357Z,5.50
2022-11-07T22:51:23.972Z,5.40
2022-11-07T22:54:00.615Z,5.40
2022-11-07T22:56:28.173Z,5.40
2022-11-07T22:58:55.277Z,5.40
2022-11-07T23:01:42.622Z,5.40
2022-11-07T23:04:14.906Z,5.30
2022-11-07T23:06:42.215Z,5.30
2022-11-07T23:09:11.833Z,5.30
2022-11-07T23:11:47.621Z,5.30
2022-11-07T23:14:18.115Z,5.20
2022-11-07T23:17:03.072Z,5.20
2022-11-07T23:19:29.803Z,5.10
2022-11-07T23:21:56.699Z,5.10
2022-11-07T23:24:23.807Z,5.10
2022-11-07T23:26:51.414Z,5.10
2022-11-07T23:29:21.103Z,5.10
2022-11-07T23:31:49.784Z,5.10
2022-11-07T23:34:17.870Z,5.00
2022-11-07T23:36:45.188Z,5.00
2022-11-07T23:39:17.527Z,5.00
2022-11-07T23:41:46.154Z,5.00
2022-11-07T23:44:13.663Z,5.00
2022-11-07T23:46:59.082Z,4.90
2022-11-07T23:49:44.260Z,5.00
2022-11-07T23:52:11.058Z,4.90
2022-11-07T23:54:56.538Z,4.90
2022-11-07T23:57:23.224Z,4.80
